createdAt,value
2018-05-18T00:00:57.667Z,1017.50
2018-05-18T00:01:57.663Z,1017.53
2018-05-18T00:02:57.664Z,1017.52
2018-05-18T00:03:57.661Z,1017.47
2018-05-18T00:04:57.656Z,1017.44
2018-05-18T00:05:57.651Z,1017.46
2018-05-18T00:06:57.642Z,1017.46
2018-05-18T00:07:57.637Z,1017.45
2018-05-18T00:08:57.635Z,1017.49
2018-05-18T00:09:57.630Z,1017.49
2018-05-18T00:10:57.630Z,1017.44
2018-05-18T00:11:57.626Z,1017.45
2018-05-18T00:12:57.623Z,1017.42
2018-05-18T00:13:57.619Z,1017.47
2018-05-18T00:14:57.609Z,1017.44
2018-05-18T00:15:57.606Z,1017.46
2018-05-18T00:16:57.607Z,1017.48
2018-05-18T00:17:57.603Z,1017.44
2018-05-18T00:18:57.594Z,1017.44
2018-05-18T00:19:57.589Z,1017.41
2018-05-18T00:20:57.585Z,1017.48
2018-05-18T00:21:57.581Z,1017.48
2018-05-18T00:22:57.582Z,1017.48
2018-05-18T00:23:57.576Z,1017.44
2018-05-18T00:24:57.580Z,1017.38
2018-05-18T00:25:57.570Z,1017.45
2018-05-18T00:26:57.560Z,1017.37
2018-05-18T00:27:57.556Z,1017.45
2018-05-18T00:28:57.552Z,1017.42
2018-05-18T00:29:57.548Z,1017.42
2018-05-18T00:30:57.547Z,1017.45
2018-05-18T00:31:57.544Z,1017.45
2018-05-18T00:32:57.538Z,1017.49
2018-05-18T00:33:57.532Z,1017.50
2018-05-18T00:34:57.530Z,1017.51
2018-05-18T00:35:57.526Z,1017.49
2018-05-18T00:36:57.525Z,1017.44
2018-05-18T00:37:57.522Z,1017.44
2018-05-18T00:38:57.510Z,1017.46
2018-05-18T00:39:57.515Z,1017.41
2018-05-18T00:40:57.502Z,1017.48
2018-05-18T00:41:57.498Z,1017.45
2018-05-18T00:42:57.499Z,1017.50
2018-05-18T00:43:57.494Z,1017.47
2018-05-18T00:44:57.489Z,1017.51
2018-05-18T00:45:57.486Z,1017.50
2018-05-18T00:46:57.480Z,1017.52
2018-05-18T00:47:57.472Z,1017.50
2018-05-18T00:48:57.472Z,1017.47
2018-05-18T00:49:57.475Z,1017.46
2018-05-18T00:50:57.462Z,1017.51
2018-05-18T00:51:57.454Z,1017.51
2018-05-18T00:52:57.450Z,1017.49
2018-05-18T00:53:57.446Z,1017.48
2018-05-18T00:54:57.447Z,1017.47
2018-05-18T00:55:57.442Z,1017.51
2018-05-18T00:56:57.439Z,1017.46
2018-05-18T00:57:57.435Z,1017.45
2018-05-18T00:58:57.426Z,1017.47
2018-05-18T00:59:57.420Z,1017.43
2018-05-18T01:00:57.416Z,1017.47
2018-05-18T01:01:57.412Z,1017.46
2018-05-18T01:02:57.416Z,1017.48
2018-05-18T01:03:57.411Z,1017.48
2018-05-18T01:04:57.406Z,1017.40
2018-05-18T01:05:57.396Z,1017.48
2018-05-18T01:06:57.394Z,1017.52
2018-05-18T01:07:57.390Z,1017.47
2018-05-18T01:08:57.387Z,1017.47
2018-05-18T01:09:57.387Z,1017.42
2018-05-18T01:10:57.372Z,1017.40
2018-05-18T01:11:57.368Z,1017.41
2018-05-18T01:12:57.364Z,1017.40
2018-05-18T01:13:57.359Z,1017.40
2018-05-18T01:14:57.359Z,1017.44
2018-05-18T01:15:57.435Z,1017.41
2018-05-18T01:16:57.356Z,1017.43
2018-05-18T01:17:57.348Z,1017.43
2018-05-18T01:18:57.337Z,1017.43
2018-05-18T01:19:57.343Z,1017.42
2018-05-18T01:20:57.333Z,1017.48
2018-05-18T01:21:57.329Z,1017.46
2018-05-18T01:22:57.320Z,1017.42
2018-05-18T01:23:57.321Z,1017.42
2018-05-18T01:24:57.311Z,1017.44
2018-05-18T01:25:57.312Z,1017.47
2018-05-18T01:26:57.308Z,1017.39
2018-05-18T01:27:57.303Z,1017.43
2018-05-18T01:28:57.298Z,1017.44
2018-05-18T01:29:57.293Z,1017.41
2018-05-18T01:30:57.285Z,1017.39
2018-05-18T01:31:57.280Z,1017.42
2018-05-18T01:32:57.277Z,1017.43
2018-05-18T01:33:57.272Z,1017.43
2018-05-18T01:34:57.273Z,1017.46
2018-05-18T01:35:57.268Z,1017.50
2018-05-18T01:36:57.258Z,1017.46
2018-05-18T01:37:57.255Z,1017.46
2018-05-18T01:38:57.254Z,1017.45
2018-05-18T01:39:57.250Z,1017.46
2018-05-18T01:40:57.245Z,1017.40
2018-05-18T01:41:57.242Z,1017.41
2018-05-18T01:42:57.231Z,1017.45
2018-05-18T01:43:57.227Z,1017.43
2018-05-18T01:44:57.223Z,1017.42
2018-05-18T01:45:57.218Z,1017.38
2018-05-18T01:46:57.217Z,1017.41
2018-05-18T01:47:57.217Z,1017.37
2018-05-18T01:48:57.211Z,1017.35
2018-05-18T01:49:57.205Z,1017.42
2018-05-18T01:50:57.195Z,1017.40
2018-05-18T01:51:57.192Z,1017.40
2018-05-18T01:52:57.195Z,1017.39
2018-05-18T01:53:57.188Z,1017.39
2018-05-18T01:54:57.178Z,1017.38
2018-05-18T01:55:57.177Z,1017.42
2018-05-18T01:56:57.169Z,1017.42
2018-05-18T01:57:57.165Z,1017.40
2018-05-18T01:58:57.164Z,1017.42
2018-05-18T01:59:57.162Z,1017.37
2018-05-18T02:00:57.157Z,1017.40
2018-05-18T02:01:57.152Z,1017.40
2018-05-18T02:02:57.144Z,1017.35
2018-05-18T02:03:57.138Z,1017.31
2018-05-18T02:04:57.134Z,1017.30
2018-05-18T02:05:57.129Z,1017.33
2018-05-18T02:06:57.131Z,1017.34
2018-05-18T02:07:57.126Z,1017.28
2018-05-18T02:08:57.117Z,1017.27
2018-05-18T02:09:57.112Z,1017.32
2018-05-18T02:10:57.111Z,1017.28
2018-05-18T02:11:57.110Z,1017.31
2018-05-18T02:12:57.102Z,1017.31
2018-05-18T02:13:57.099Z,1017.33
2018-05-18T02:14:57.089Z,1017.32
2018-05-18T02:15:57.084Z,1017.32
2018-05-18T02:16:57.080Z,1017.34
2018-05-18T02:17:57.076Z,1017.31
2018-05-18T02:18:57.075Z,1017.34
2018-05-18T02:19:57.070Z,1017.33
2018-05-18T02:20:57.068Z,1017.36
2018-05-18T02:21:57.062Z,1017.40
2018-05-18T02:22:57.052Z,1017.36
2018-05-18T02:23:57.049Z,1017.38
2018-05-18T02:24:57.048Z,1017.41
2018-05-18T02:25:57.045Z,1017.44
2018-05-18T02:26:57.034Z,1017.46
2018-05-18T02:27:57.030Z,1017.42
2018-05-18T02:28:57.030Z,1017.46
2018-05-18T02:29:57.021Z,1017.47
2018-05-18T02:30:57.023Z,1017.45
2018-05-18T02:31:57.017Z,1017.42
2018-05-18T02:32:57.012Z,1017.41
2018-05-18T02:33:57.010Z,1017.46
2018-05-18T02:34:56.999Z,1017.45
2018-05-18T02:35:56.995Z,1017.49
2018-05-18T02:36:56.989Z,1017.52
2018-05-18T02:37:56.987Z,1017.45
2018-05-18T02:38:56.984Z,1017.47
2018-05-18T02:39:56.981Z,1017.46
2018-05-18T02:40:56.972Z,1017.46
2018-05-18T02:41:56.968Z,1017.47
2018-05-18T02:42:56.973Z,1017.42
2018-05-18T02:43:56.963Z,1017.47
2018-05-18T02:44:56.958Z,1017.46
2018-05-18T02:45:56.955Z,1017.44
2018-05-18T02:46:56.945Z,1017.41
2018-05-18T02:47:56.941Z,1017.41
2018-05-18T02:48:56.935Z,1017.44
2018-05-18T02:49:56.931Z,1017.45
2018-05-18T02:50:56.931Z,1017.41
2018-05-18T02:51:56.925Z,1017.39
2018-05-18T02:52:56.921Z,1017.41
2018-05-18T02:53:56.922Z,1017.40
2018-05-18T02:54:56.908Z,1017.38
2018-05-18T02:55:56.905Z,1017.38
2018-05-18T02:56:56.903Z,1017.39
2018-05-18T02:57:56.898Z,1017.38
2018-05-18T02:58:56.888Z,1017.37
2018-05-18T02:59:56.884Z,1017.39
2018-05-18T03:00:56.900Z,1017.35
2018-05-18T03:01:56.879Z,1017.43
2018-05-18T03:02:56.875Z,1017.38
2018-05-18T03:03:56.870Z,1017.39
2018-05-18T03:04:56.867Z,1017.38
2018-05-18T03:05:56.865Z,1017.39
2018-05-18T03:06:56.851Z,1017.34
2018-05-18T03:07:56.846Z,1017.39
2018-05-18T03:08:56.842Z,1017.47
2018-05-18T03:09:56.837Z,1017.39
2018-05-18T03:10:56.837Z,1017.43
2018-05-18T03:11:56.833Z,1017.40
2018-05-18T03:12:56.824Z,1017.39
2018-05-18T03:13:56.820Z,1017.39
2018-05-18T03:14:56.817Z,1017.34
2018-05-18T03:15:56.813Z,1017.33
2018-05-18T03:16:56.809Z,1017.40
2018-05-18T03:17:56.804Z,1017.38
2018-05-18T03:18:56.796Z,1017.40
2018-05-18T03:19:56.790Z,1017.37
2018-05-18T03:20:56.803Z,1017.41
2018-05-18T03:21:56.781Z,1017.38
2018-05-18T03:22:56.785Z,1017.41
2018-05-18T03:23:56.775Z,1017.41
2018-05-18T03:24:56.770Z,1017.44
2018-05-18T03:25:56.772Z,1017.41
2018-05-18T03:26:56.759Z,1017.42
2018-05-18T03:27:56.751Z,1017.45
2018-05-18T03:28:56.751Z,1017.43
2018-05-18T03:29:56.746Z,1017.44
2018-05-18T03:30:56.737Z,1017.45
2018-05-18T03:31:56.737Z,1017.42
2018-05-18T03:32:56.728Z,1017.45
2018-05-18T03:33:56.725Z,1017.49
2018-05-18T03:34:56.724Z,1017.47
2018-05-18T03:35:56.717Z,1017.44
2018-05-18T03:36:56.763Z,1017.45
2018-05-18T03:37:56.708Z,1017.40
2018-05-18T03:38:56.697Z,1017.43
2018-05-18T03:39:56.697Z,1017.38
2018-05-18T03:40:56.689Z,1017.44
2018-05-18T03:41:56.684Z,1017.47
2018-05-18T03:42:56.684Z,1017.43
2018-05-18T03:43:56.679Z,1017.46
2018-05-18T03:44:56.669Z,1017.41
2018-05-18T03:45:56.665Z,1017.42
2018-05-18T03:46:56.668Z,1017.40
2018-05-18T03:47:56.660Z,1017.39
2018-05-18T03:48:56.654Z,1017.40
2018-05-18T03:49:56.650Z,1017.43
2018-05-18T03:50:56.640Z,1017.47
2018-05-18T03:51:56.635Z,1017.46
2018-05-18T03:52:56.630Z,1017.46
2018-05-18T03:53:56.625Z,1017.49
2018-05-18T03:54:56.624Z,1017.48
2018-05-18T03:55:56.619Z,1017.52
2018-05-18T03:56:56.616Z,1017.54
2018-05-18T03:57:56.612Z,1017.50
2018-05-18T03:58:56.601Z,1017.47
2018-05-18T03:59:56.596Z,1017.53
2018-05-18T04:00:56.597Z,1017.54
2018-05-18T04:01:56.594Z,1017.57
2018-05-18T04:02:56.583Z,1017.55
2018-05-18T04:03:56.576Z,1017.60
2018-05-18T04:04:56.572Z,1017.62
2018-05-18T04:05:56.568Z,1017.58
2018-05-18T04:06:56.567Z,1017.60
2018-05-18T04:07:56.562Z,1017.63
2018-05-18T04:08:56.557Z,1017.66
2018-05-18T04:09:56.552Z,1017.60
2018-05-18T04:10:56.543Z,1017.67
2018-05-18T04:11:56.540Z,1017.62
2018-05-18T04:12:56.534Z,1017.73
2018-05-18T04:13:56.529Z,1017.67
2018-05-18T04:14:56.528Z,1017.69
2018-05-18T04:15:56.524Z,1017.70
2018-05-18T04:16:56.514Z,1017.72
2018-05-18T04:17:56.509Z,1017.70
2018-05-18T04:18:56.509Z,1017.68
2018-05-18T04:19:56.521Z,1017.66
2018-05-18T04:20:56.505Z,1017.72
2018-05-18T04:21:56.495Z,1017.70
2018-05-18T04:22:56.484Z,1017.68
2018-05-18T04:23:56.479Z,1017.74
2018-05-18T04:24:56.475Z,1017.72
2018-05-18T04:25:56.470Z,1017.73
2018-05-18T04:26:56.469Z,1017.73
2018-05-18T04:27:56.464Z,1017.76
2018-05-18T04:28:56.461Z,1017.77
2018-05-18T04:29:56.457Z,1017.86
2018-05-18T04:30:56.445Z,1017.82
2018-05-18T04:31:56.441Z,1017.80
2018-05-18T04:32:56.442Z,1017.82
2018-05-18T04:33:56.438Z,1017.81
2018-05-18T04:34:56.428Z,1017.83
2018-05-18T04:35:56.422Z,1017.84
2018-05-18T04:36:56.418Z,1017.85
2018-05-18T04:37:56.415Z,1017.83
2018-05-18T04:38:56.413Z,1017.84
2018-05-18T04:39:56.407Z,1017.84
2018-05-18T04:40:56.404Z,1017.82
2018-05-18T04:41:56.398Z,1017.84
2018-05-18T04:42:56.389Z,1017.85
2018-05-18T04:43:56.385Z,1017.80
2018-05-18T04:44:56.380Z,1017.84
2018-05-18T04:45:56.375Z,1017.82
2018-05-18T04:46:56.375Z,1017.80
2018-05-18T04:47:56.369Z,1017.82
2018-05-18T04:48:56.360Z,1017.80
2018-05-18T04:49:56.359Z,1017.81
2018-05-18T04:50:56.390Z,1017.86
2018-05-18T04:51:56.350Z,1017.88
2018-05-18T04:52:56.351Z,1017.85
2018-05-18T04:53:56.343Z,1017.89
2018-05-18T04:54:56.331Z,1017.93
2018-05-18T04:55:56.328Z,1017.94
2018-05-18T04:56:56.322Z,1017.97
2018-05-18T04:57:56.319Z,1017.99
2018-05-18T04:58:56.401Z,1017.98
2018-05-18T04:59:56.313Z,1018.01
2018-05-18T05:00:56.307Z,1017.99
2018-05-18T05:01:56.303Z,1018.01
2018-05-18T05:02:56.293Z,1018.02
2018-05-18T05:03:56.289Z,1018.01
2018-05-18T05:04:56.288Z,1018.01
2018-05-18T05:05:56.285Z,1018.00
2018-05-18T05:06:56.273Z,1018.00
2018-05-18T05:07:56.270Z,1017.99
2018-05-18T05:08:56.265Z,1018.01
2018-05-18T05:09:56.260Z,1018.03
2018-05-18T05:10:56.260Z,1018.07
2018-05-18T05:11:56.256Z,1018.05
2018-05-18T05:12:56.251Z,1018.06
2018-05-18T05:13:56.246Z,1018.08
2018-05-18T05:14:56.236Z,1018.04
2018-05-18T05:15:56.232Z,1018.08
2018-05-18T05:16:56.230Z,1018.11
2018-05-18T05:17:56.253Z,1018.12
2018-05-18T05:18:56.221Z,1018.11
2018-05-18T05:19:56.220Z,1018.14
2018-05-18T05:20:56.208Z,1018.11
2018-05-18T05:21:56.205Z,1018.16
2018-05-18T05:22:56.203Z,1018.13
2018-05-18T05:23:56.200Z,1018.13
2018-05-18T05:24:56.196Z,1018.15
2018-05-18T05:25:56.195Z,1018.16
2018-05-18T05:26:56.183Z,1018.14
2018-05-18T05:27:56.178Z,1018.16
2018-05-18T05:28:56.173Z,1018.17
2018-05-18T05:29:56.196Z,1018.18
2018-05-18T05:30:56.169Z,1018.18
2018-05-18T05:31:56.164Z,1018.20
2018-05-18T05:32:56.159Z,1018.25
2018-05-18T05:33:56.155Z,1018.23
2018-05-18T05:34:56.145Z,1018.23
2018-05-18T05:35:56.142Z,1018.23
2018-05-18T05:36:56.142Z,1018.22
2018-05-18T05:37:56.138Z,1018.26
2018-05-18T05:38:56.128Z,1018.27
2018-05-18T05:39:56.124Z,1018.24
2018-05-18T05:40:56.121Z,1018.27
2018-05-18T05:41:56.117Z,1018.25
2018-05-18T05:42:56.118Z,1018.25
2018-05-18T05:43:56.113Z,1018.27
2018-05-18T05:44:56.108Z,1018.26
2018-05-18T05:45:56.104Z,1018.31
2018-05-18T05:46:56.175Z,1018.31
2018-05-18T05:47:56.092Z,1018.36
2018-05-18T05:48:56.090Z,1018.36
2018-05-18T05:49:56.085Z,1018.40
2018-05-18T05:50:56.084Z,1018.39
2018-05-18T05:51:56.081Z,1018.43
2018-05-18T05:52:56.209Z,1018.47
2018-05-18T05:53:56.068Z,1018.45
2018-05-18T05:54:56.074Z,1018.63
2018-05-18T05:55:56.065Z,1018.46
2018-05-18T05:56:56.061Z,1018.45
2018-05-18T05:57:56.059Z,1018.40
2018-05-18T05:58:56.052Z,1018.45
2018-05-18T05:59:56.047Z,1018.47
2018-05-18T06:00:56.043Z,1018.48
2018-05-18T06:01:56.041Z,1018.49
2018-05-18T06:02:56.041Z,1018.40
2018-05-18T06:03:56.038Z,1018.45
2018-05-18T06:04:56.035Z,1018.48
2018-05-18T06:05:56.034Z,1018.47
2018-05-18T06:06:56.025Z,1018.50
2018-05-18T06:07:56.022Z,1018.49
2018-05-18T06:08:56.024Z,1018.51
2018-05-18T06:09:56.021Z,1018.49
2018-05-18T06:10:56.015Z,1018.46
2018-05-18T06:11:56.010Z,1018.56
2018-05-18T06:12:56.011Z,1018.57
2018-05-18T06:13:56.006Z,1018.79
2018-05-18T06:14:56.009Z,1018.62
2018-05-18T06:15:56.004Z,1018.61
2018-05-18T06:16:56.001Z,1018.57
2018-05-18T06:17:55.998Z,1018.55
2018-05-18T06:18:55.991Z,1018.89
2018-05-18T06:19:55.989Z,1018.97
2018-05-18T06:20:55.988Z,1018.80
2018-05-18T06:21:55.985Z,1018.60
2018-05-18T06:22:55.987Z,1018.59
2018-05-18T06:23:55.984Z,1018.60
2018-05-18T06:24:55.978Z,1018.61
2018-05-18T06:25:55.977Z,1018.64
2018-05-18T06:26:55.978Z,1018.62
2018-05-18T06:27:55.978Z,1018.65
2018-05-18T06:28:55.974Z,1018.64
2018-05-18T06:29:55.973Z,1018.66
2018-05-18T06:30:55.966Z,1018.69
2018-05-18T06:31:55.963Z,1018.73
2018-05-18T06:32:55.964Z,1018.68
2018-05-18T06:33:55.961Z,1018.71
2018-05-18T06:34:56.010Z,1018.77
2018-05-18T06:35:55.961Z,1018.73
2018-05-18T06:36:55.961Z,1018.77
2018-05-18T06:37:55.959Z,1018.77
2018-05-18T06:38:55.953Z,1018.79
2018-05-18T06:39:55.950Z,1018.77
2018-05-18T06:40:55.955Z,1018.74
2018-05-18T06:41:55.955Z,1018.77
2018-05-18T06:42:55.945Z,1018.81
2018-05-18T06:43:55.944Z,1018.87
2018-05-18T06:44:55.942Z,1018.93
2018-05-18T06:45:55.940Z,1019.41
2018-05-18T06:46:55.992Z,1019.47
2018-05-18T06:47:55.940Z,1019.58
2018-05-18T06:48:55.939Z,1018.93
2018-05-18T06:49:55.940Z,1018.88
2018-05-18T06:50:55.932Z,1018.94
2018-05-18T06:51:55.931Z,1018.91
2018-05-18T06:52:55.981Z,1018.92
2018-05-18T06:53:55.932Z,1018.93
2018-05-18T06:54:55.934Z,1018.91
2018-05-18T06:55:55.933Z,1018.90
2018-05-18T06:56:55.928Z,1018.94
2018-05-18T06:57:55.927Z,1018.97
2018-05-18T06:58:55.932Z,1019.08
2018-05-18T06:59:55.931Z,1019.29
2018-05-18T07:00:55.933Z,1019.50
2018-05-18T07:01:55.931Z,1019.11
2018-05-18T07:02:55.928Z,1019.30
2018-05-18T07:03:55.928Z,1019.25
2018-05-18T07:04:55.927Z,1019.01
2018-05-18T07:05:55.934Z,1018.98
2018-05-18T07:06:55.931Z,1018.98
2018-05-18T07:07:55.932Z,1018.95
2018-05-18T07:08:55.934Z,1019.25
2018-05-18T07:09:55.935Z,1019.23
2018-05-18T07:10:55.931Z,1019.25
2018-05-18T07:11:55.934Z,1019.08
2018-05-18T07:12:55.936Z,1019.89
2018-05-18T07:13:55.939Z,1019.90
2018-05-18T07:14:55.933Z,1019.85
2018-05-18T07:15:55.936Z,1019.92
2018-05-18T07:16:55.936Z,1020.00
2018-05-18T07:17:55.938Z,1020.06
2018-05-18T07:18:55.945Z,1020.03
2018-05-18T07:19:55.947Z,1020.10
2018-05-18T07:20:55.951Z,1020.14
2018-05-18T07:21:55.953Z,1020.13
2018-05-18T07:22:56.001Z,1019.60
2018-05-18T07:23:55.956Z,1019.62
2018-05-18T07:24:55.960Z,1019.64
2018-05-18T07:25:55.964Z,1019.64
2018-05-18T07:26:55.974Z,1019.60
2018-05-18T07:27:55.978Z,1019.60
2018-05-18T07:28:55.979Z,1019.58
2018-05-18T07:29:55.986Z,1019.57
2018-05-18T07:30:55.996Z,1019.55
2018-05-18T07:31:56.007Z,1019.56
2018-05-18T07:32:56.006Z,1019.57
2018-05-18T07:33:56.012Z,1019.60
2018-05-18T07:34:56.019Z,1019.64
2018-05-18T07:35:56.021Z,1019.68
2018-05-18T07:36:56.028Z,1019.69
2018-05-18T07:37:56.036Z,1019.70
2018-05-18T07:38:56.047Z,1019.74
2018-05-18T07:39:56.052Z,1019.73
2018-05-18T07:40:56.062Z,1019.75
2018-05-18T07:41:56.069Z,1019.80
2018-05-18T07:42:56.083Z,1019.79
2018-05-18T07:43:56.143Z,1019.80
2018-05-18T07:44:56.095Z,1019.79
2018-05-18T07:45:56.103Z,1019.88
2018-05-18T07:46:56.108Z,1019.69
2018-05-18T07:47:56.119Z,1019.52
2018-05-18T07:48:56.125Z,1019.84
2018-05-18T07:49:56.134Z,1019.84
2018-05-18T07:50:56.148Z,1019.61
2018-05-18T07:51:56.158Z,1019.44
2018-05-18T07:52:56.169Z,1019.41
2018-05-18T07:53:56.180Z,1019.40
2018-05-18T07:54:56.184Z,1019.65
2018-05-18T07:55:56.194Z,1019.85
2018-05-18T07:56:56.206Z,1019.84
2018-05-18T07:57:56.219Z,1019.94
2018-05-18T07:58:56.229Z,1019.79
2018-05-18T07:59:56.242Z,1019.56
2018-05-18T08:00:56.247Z,1019.60
2018-05-18T08:01:56.257Z,1019.61
2018-05-18T08:02:56.273Z,1019.82
2018-05-18T08:03:56.283Z,1019.71
2018-05-18T08:04:56.296Z,1019.88
2018-05-18T08:05:56.308Z,1019.54
2018-05-18T08:06:56.312Z,1019.58
2018-05-18T08:07:56.356Z,1019.50
2018-05-18T08:08:56.335Z,1019.64
2018-05-18T08:09:56.345Z,1019.58
2018-05-18T08:10:56.361Z,1019.36
2018-05-18T08:11:56.372Z,1019.37
2018-05-18T08:12:56.382Z,1019.41
2018-05-18T08:13:56.392Z,1019.90
2018-05-18T08:14:56.398Z,1019.38
2018-05-18T08:15:56.407Z,1019.38
2018-05-18T08:16:56.421Z,1019.36
2018-05-18T08:17:56.431Z,1019.34
2018-05-18T08:18:56.439Z,1019.76
2018-05-18T08:19:56.445Z,1019.34
2018-05-18T08:20:56.454Z,1019.31
2018-05-18T08:21:56.468Z,1019.33
2018-05-18T08:22:56.477Z,1019.39
2018-05-18T08:23:56.485Z,1019.35
2018-05-18T08:24:56.494Z,1019.49
2018-05-18T08:25:56.503Z,1019.41
2018-05-18T08:26:56.506Z,1020.28
2018-05-18T08:27:56.514Z,1020.03
2018-05-18T08:28:56.523Z,1020.44
2018-05-18T08:29:56.530Z,1020.58
2018-05-18T08:30:56.543Z,1020.80
2018-05-18T08:31:56.552Z,1020.67
2018-05-18T08:32:56.557Z,1019.94
2018-05-18T08:33:56.566Z,1019.65
2018-05-18T08:34:56.579Z,1019.64
2018-05-18T08:35:56.589Z,1019.66
2018-05-18T08:36:56.604Z,1019.81
2018-05-18T08:37:56.611Z,1019.69
2018-05-18T08:38:56.615Z,1020.15
2018-05-18T08:39:56.625Z,1020.35
2018-05-18T08:40:56.636Z,1021.02
2018-05-18T08:41:56.648Z,1020.93
2018-05-18T08:42:56.661Z,1020.97
2018-05-18T08:43:56.672Z,1021.06
2018-05-18T08:44:56.684Z,1021.04
2018-05-18T08:45:56.694Z,1019.95
2018-05-18T08:46:56.700Z,1019.97
2018-05-18T08:47:56.712Z,1020.97
2018-05-18T08:48:56.730Z,1020.98
2018-05-18T08:49:56.742Z,1020.88
2018-05-18T08:50:56.750Z,1020.95
2018-05-18T08:51:56.763Z,1020.98
2018-05-18T08:52:56.776Z,1021.06
2018-05-18T08:53:56.790Z,1021.05
2018-05-18T08:54:56.808Z,1021.02
2018-05-18T08:55:56.822Z,1021.03
2018-05-18T08:56:56.838Z,1021.05
2018-05-18T08:57:56.852Z,1021.28
2018-05-18T08:58:56.860Z,1021.23
2018-05-18T08:59:56.875Z,1021.17
2018-05-18T09:00:56.891Z,1021.11
2018-05-18T09:01:56.907Z,1021.18
2018-05-18T09:02:56.927Z,1021.17
2018-05-18T09:03:56.942Z,1021.09
2018-05-18T09:04:56.954Z,1020.91
2018-05-18T09:05:56.971Z,1020.75
2018-05-18T09:06:56.992Z,1020.74
2018-05-18T09:07:57.008Z,1020.81
2018-05-18T09:08:57.074Z,1020.73
2018-05-18T09:09:57.040Z,1020.71
2018-05-18T09:10:57.052Z,1019.59
2018-05-18T09:11:57.069Z,1020.55
2018-05-18T09:12:57.085Z,1020.01
2018-05-18T09:13:57.102Z,1019.51
2018-05-18T09:14:57.122Z,1019.61
2018-05-18T09:15:57.143Z,1019.64
2018-05-18T09:16:57.157Z,1019.66
2018-05-18T09:17:57.171Z,1019.73
2018-05-18T09:18:57.181Z,1019.55
2018-05-18T09:19:57.197Z,1019.52
2018-05-18T09:20:57.217Z,1019.92
2018-05-18T09:21:57.233Z,1019.83
2018-05-18T09:22:57.242Z,1019.75
2018-05-18T09:23:57.254Z,1019.79
2018-05-18T09:24:57.269Z,1019.76
2018-05-18T09:25:57.283Z,1019.76
2018-05-18T09:26:57.301Z,1019.83
2018-05-18T09:27:57.315Z,1019.85
2018-05-18T09:28:57.335Z,1019.63
2018-05-18T09:29:57.345Z,1019.87
2018-05-18T09:30:57.355Z,1019.75
2018-05-18T09:31:57.369Z,1019.71
2018-05-18T09:32:57.385Z,1019.61
2018-05-18T09:33:57.486Z,1019.58
2018-05-18T09:34:57.418Z,1019.55
2018-05-18T09:35:57.434Z,1019.55
2018-05-18T09:36:57.445Z,1019.75
2018-05-18T09:37:57.458Z,1019.55
2018-05-18T09:38:57.478Z,1019.70
2018-05-18T09:39:57.492Z,1019.41
2018-05-18T09:40:57.505Z,1019.64
2018-05-18T09:41:57.522Z,1019.67
2018-05-18T09:42:57.530Z,1019.60
2018-05-18T09:43:57.544Z,1019.40
2018-05-18T09:44:57.560Z,1019.41
2018-05-18T09:45:57.574Z,1019.49
2018-05-18T09:46:57.593Z,1019.49
2018-05-18T09:47:57.608Z,1019.64
2018-05-18T09:48:57.624Z,1019.70
2018-05-18T09:49:57.637Z,1019.64
2018-05-18T09:50:57.650Z,1019.69
2018-05-18T09:51:57.662Z,1019.69
2018-05-18T09:52:57.681Z,1019.48
2018-05-18T09:53:57.795Z,1019.46
2018-05-18T09:54:57.960Z,1019.68
2018-05-18T09:55:57.725Z,1019.59
2018-05-18T09:56:57.736Z,1019.42
2018-05-18T09:57:57.751Z,1019.59
2018-05-18T09:58:57.771Z,1019.63
2018-05-18T09:59:57.786Z,1019.62
2018-05-18T10:00:57.801Z,1019.64
2018-05-18T10:01:57.820Z,1019.41
2018-05-18T10:02:57.826Z,1019.64
2018-05-18T10:03:57.841Z,1019.63
2018-05-18T10:04:57.857Z,1019.73
2018-05-18T10:05:57.872Z,1019.70
2018-05-18T10:06:57.929Z,1019.73
2018-05-18T10:07:57.909Z,1019.73
2018-05-18T10:08:57.919Z,1019.69
2018-05-18T10:09:57.935Z,1019.66
2018-05-18T10:10:57.956Z,1019.63
2018-05-18T10:11:57.971Z,1019.57
2018-05-18T10:12:57.987Z,1019.60
2018-05-18T10:13:58.003Z,1019.60
2018-05-18T10:14:58.015Z,1019.56
2018-05-18T10:15:58.031Z,1019.58
2018-05-18T10:16:58.048Z,1019.60
2018-05-18T10:17:58.065Z,1019.60
2018-05-18T10:18:58.086Z,1019.62
2018-05-18T10:19:58.102Z,1019.66
2018-05-18T10:20:58.117Z,1019.72
2018-05-18T10:21:58.135Z,1019.66
2018-05-18T10:22:58.146Z,1019.65
2018-05-18T10:23:58.164Z,1019.64
2018-05-18T10:24:58.187Z,1019.59
2018-05-18T10:25:58.203Z,1019.29
2018-05-18T10:26:58.279Z,1019.29
2018-05-18T10:27:58.230Z,1019.23
2018-05-18T10:28:58.248Z,1019.33
2018-05-18T10:29:58.264Z,1019.27
2018-05-18T10:30:58.285Z,1019.18
2018-05-18T10:31:58.300Z,1019.30
2018-05-18T10:32:58.325Z,1019.18
2018-05-18T10:33:58.332Z,1019.45
2018-05-18T10:34:58.344Z,1019.22
2018-05-18T10:35:58.358Z,1019.21
2018-05-18T10:36:58.375Z,1019.34
2018-05-18T10:37:58.388Z,1019.30
2018-05-18T10:38:58.408Z,1019.45
2018-05-18T10:39:58.424Z,1019.39
2018-05-18T10:40:58.431Z,1019.39
2018-05-18T10:41:58.446Z,1019.39
2018-05-18T10:42:58.465Z,1019.43
2018-05-18T10:43:58.479Z,1019.33
2018-05-18T10:44:58.493Z,1019.36
2018-05-18T10:45:58.511Z,1019.34
2018-05-18T10:46:58.520Z,1019.31
2018-05-18T10:47:58.532Z,1019.30
2018-05-18T10:48:58.575Z,1019.27
2018-05-18T10:49:58.561Z,1019.22
2018-05-18T10:50:58.580Z,1019.30
2018-05-18T10:51:58.595Z,1019.35
2018-05-18T10:52:58.647Z,1019.31
2018-05-18T10:53:58.625Z,1019.11
2018-05-18T10:54:58.633Z,1019.07
2018-05-18T10:55:58.650Z,1019.28
2018-05-18T10:56:58.668Z,1019.23
2018-05-18T10:57:58.684Z,1019.26
2018-05-18T10:58:58.696Z,1019.18
2018-05-18T10:59:58.709Z,1019.25
2018-05-18T11:00:58.724Z,1019.03
2018-05-18T11:01:58.742Z,1018.99
2018-05-18T11:02:58.756Z,1019.11
2018-05-18T11:03:58.771Z,1019.24
2018-05-18T11:04:58.783Z,1019.22
2018-05-18T11:05:58.796Z,1019.18
2018-05-18T11:06:58.875Z,1019.18
2018-05-18T11:07:58.828Z,1019.15
2018-05-18T11:08:58.843Z,1019.13
2018-05-18T11:09:58.857Z,1019.21
2018-05-18T11:10:58.867Z,1019.18
2018-05-18T11:11:58.881Z,1019.14
2018-05-18T11:12:58.906Z,1019.05
2018-05-18T11:13:59.045Z,1018.98
2018-05-18T11:14:58.929Z,1018.96
2018-05-18T11:15:58.939Z,1018.87
2018-05-18T11:16:58.954Z,1018.79
2018-05-18T11:17:58.968Z,1018.79
2018-05-18T11:18:58.985Z,1018.63
2018-05-18T11:19:59.021Z,1018.70
2018-05-18T11:20:59.014Z,1018.69
2018-05-18T11:21:59.028Z,1018.67
2018-05-18T11:22:59.036Z,1018.60
2018-05-18T11:23:59.050Z,1018.54
2018-05-18T11:24:59.063Z,1018.55
2018-05-18T11:25:59.075Z,1018.54
2018-05-18T11:26:59.092Z,1018.44
2018-05-18T11:27:59.102Z,1018.47
2018-05-18T11:28:59.109Z,1018.45
2018-05-18T11:29:59.120Z,1018.46
2018-05-18T11:30:59.137Z,1018.44
2018-05-18T11:31:59.146Z,1018.48
2018-05-18T11:32:59.208Z,1018.44
2018-05-18T11:33:59.175Z,1018.43
2018-05-18T11:34:59.168Z,1018.41
2018-05-18T11:35:59.177Z,1018.35
2018-05-18T11:36:59.185Z,1018.30
2018-05-18T11:37:59.194Z,1018.30
2018-05-18T11:38:59.205Z,1018.28
2018-05-18T11:39:59.215Z,1018.30
2018-05-18T11:40:59.223Z,1018.36
2018-05-18T11:41:59.231Z,1018.35
2018-05-18T11:42:59.231Z,1018.31
2018-05-18T11:43:59.239Z,1018.30
2018-05-18T11:44:59.252Z,1018.33
2018-05-18T11:45:59.258Z,1018.30
2018-05-18T11:46:59.263Z,1018.27
2018-05-18T11:47:59.267Z,1018.22
2018-05-18T11:48:59.271Z,1018.18
2018-05-18T11:49:59.279Z,1018.20
2018-05-18T11:50:59.287Z,1018.16
2018-05-18T11:51:59.294Z,1018.20
2018-05-18T11:52:59.300Z,1018.23
2018-05-18T11:53:59.306Z,1018.20
2018-05-18T11:54:59.307Z,1018.16
2018-05-18T11:55:59.312Z,1018.20
2018-05-18T11:56:59.319Z,1018.16
2018-05-18T11:57:59.323Z,1018.15
2018-05-18T11:58:59.334Z,1018.13
2018-05-18T11:59:59.338Z,1018.10
2018-05-18T12:00:59.339Z,1018.13
2018-05-18T12:01:59.345Z,1018.11
2018-05-18T12:02:59.369Z,1018.09
2018-05-18T12:03:59.359Z,1018.04
2018-05-18T12:04:59.363Z,1018.02
2018-05-18T12:05:59.367Z,1018.07